createdAt,value
2017-08-25T00:00:34.631Z,17.20
2017-08-25T00:03:02.306Z,17.20
2017-08-25T00:05:29.905Z,17.30
2017-08-25T00:07:57.486Z,17.20
2017-08-25T00:10:25.067Z,17.20
2017-08-25T00:12:52.656Z,17.10
2017-08-25T00:15:20.460Z,17.00
2017-08-25T00:17:48.054Z,16.90
2017-08-25T00:20:15.634Z,16.90
2017-08-25T00:22:43.166Z,16.80
2017-08-25T00:25:11.548Z,16.70
2017-08-25T00:27:39.118Z,16.70
2017-08-25T00:30:06.711Z,16.60
2017-08-25T00:32:34.283Z,16.60
2017-08-25T00:35:01.838Z,16.60
2017-08-25T00:37:29.418Z,16.60
2017-08-25T00:39:56.990Z,16.50
2017-08-25T00:42:24.595Z,16.50
2017-08-25T00:44:52.167Z,16.50
2017-08-25T00:47:19.728Z,16.50
2017-08-25T00:49:47.367Z,16.50
2017-08-25T00:52:14.943Z,16.40
2017-08-25T00:54:42.547Z,16.40
2017-08-25T00:57:10.116Z,16.30
2017-08-25T00:59:37.720Z,16.30
2017-08-25T01:02:05.323Z,16.30
2017-08-25T01:04:32.886Z,16.20
2017-08-25T01:07:00.470Z,16.20
2017-08-25T01:09:28.043Z,16.10
2017-08-25T01:11:55.700Z,16.20
2017-08-25T01:14:23.292Z,16.20
2017-08-25T01:16:50.870Z,16.20
2017-08-25T01:19:18.460Z,16.20
2017-08-25T01:21:46.054Z,16.10
2017-08-25T01:24:13.643Z,16.10
2017-08-25T01:26:41.220Z,16.10
2017-08-25T01:29:08.807Z,16.00
2017-08-25T01:31:36.403Z,16.00
2017-08-25T01:34:03.971Z,16.00
2017-08-25T01:36:31.566Z,16.00
2017-08-25T01:38:59.151Z,16.00
2017-08-25T01:41:26.749Z,16.00
2017-08-25T01:43:54.327Z,16.00
2017-08-25T01:46:21.887Z,16.00
2017-08-25T01:48:49.740Z,16.00
2017-08-25T01:51:17.306Z,16.10
2017-08-25T01:53:44.917Z,16.10
2017-08-25T01:56:12.509Z,16.20
2017-08-25T01:58:40.076Z,16.20
2017-08-25T02:01:07.713Z,16.20
2017-08-25T02:03:35.267Z,16.20
2017-08-25T02:06:03.161Z,16.30
2017-08-25T02:08:30.743Z,16.30
2017-08-25T02:10:58.307Z,16.30
2017-08-25T02:13:25.895Z,16.40
2017-08-25T02:15:53.468Z,16.40
2017-08-25T02:18:21.094Z,16.40
2017-08-25T02:20:49.451Z,16.30
2017-08-25T02:23:17.307Z,16.30
2017-08-25T02:25:44.879Z,16.30
2017-08-25T02:28:12.478Z,16.30
2017-08-25T02:30:40.161Z,16.30
2017-08-25T02:33:07.731Z,16.30
2017-08-25T02:35:35.319Z,16.20
2017-08-25T02:38:02.892Z,16.20
2017-08-25T02:40:30.837Z,16.20
2017-08-25T02:42:58.416Z,16.20
2017-08-25T02:45:25.984Z,16.20
2017-08-25T02:47:53.922Z,16.10
2017-08-25T02:50:21.790Z,16.00
2017-08-25T02:52:49.395Z,16.00
2017-08-25T02:55:16.971Z,16.00
2017-08-25T02:57:44.871Z,16.00
2017-08-25T03:00:12.450Z,16.10
2017-08-25T03:02:40.021Z,16.10
2017-08-25T03:05:07.671Z,16.10
2017-08-25T03:07:35.319Z,16.10
2017-08-25T03:10:03.036Z,16.00
2017-08-25T03:12:30.606Z,15.90
2017-08-25T03:14:58.443Z,15.80
2017-08-25T03:17:26.791Z,15.70
2017-08-25T03:19:54.394Z,15.70
2017-08-25T03:22:22.000Z,15.70
2017-08-25T03:24:49.578Z,15.60
2017-08-25T03:27:17.527Z,15.60
2017-08-25T03:29:45.239Z,15.60
2017-08-25T03:32:12.812Z,15.70
2017-08-25T03:34:40.439Z,15.70
2017-08-25T03:37:08.012Z,15.70
2017-08-25T03:39:35.943Z,15.70
2017-08-25T03:42:03.506Z,15.80
2017-08-25T03:44:31.071Z,15.90
2017-08-25T03:46:58.685Z,16.00
2017-08-25T03:49:26.271Z,16.00
2017-08-25T03:51:53.860Z,16.10
2017-08-25T03:54:21.427Z,16.10
2017-08-25T03:56:49.761Z,16.20
2017-08-25T03:59:17.404Z,16.10
2017-08-25T04:01:44.976Z,16.20
2017-08-25T04:04:12.841Z,16.10
2017-08-25T04:06:40.416Z,16.10
2017-08-25T04:09:08.003Z,16.00
2017-08-25T04:11:35.558Z,15.90
2017-08-25T04:14:03.131Z,15.80
2017-08-25T04:16:31.066Z,15.70
2017-08-25T04:18:58.632Z,15.60
2017-08-25T04:21:26.197Z,15.60
2017-08-25T04:23:53.813Z,15.50
2017-08-25T04:26:21.377Z,15.50
2017-08-25T04:28:48.989Z,15.40
2017-08-25T04:31:16.559Z,15.50
2017-08-25T04:33:44.464Z,15.50
2017-08-25T04:36:12.085Z,15.40
2017-08-25T04:38:39.657Z,15.40
2017-08-25T04:41:08.163Z,15.40
2017-08-25T04:43:35.753Z,15.30
2017-08-25T04:46:03.337Z,15.40
2017-08-25T04:48:33.456Z,15.50
2017-08-25T04:51:01.328Z,15.50
2017-08-25T04:53:28.905Z,15.50
2017-08-25T04:55:56.490Z,15.50
2017-08-25T04:58:24.088Z,15.60
2017-08-25T05:00:51.648Z,15.60
2017-08-25T05:03:19.276Z,15.70
2017-08-25T05:05:46.891Z,15.70
2017-08-25T05:08:14.828Z,15.80
2017-08-25T05:10:42.420Z,16.00
2017-08-25T05:13:09.998Z,16.00
2017-08-25T05:15:37.591Z,16.10
2017-08-25T05:18:05.156Z,16.20
2017-08-25T05:20:32.755Z,16.30
2017-08-25T05:23:00.347Z,16.20
2017-08-25T05:25:28.265Z,16.30
2017-08-25T05:27:56.193Z,16.30
2017-08-25T05:30:23.882Z,16.40
2017-08-25T05:32:51.491Z,16.50
2017-08-25T05:35:19.090Z,16.60
2017-08-25T05:37:46.717Z,16.70
2017-08-25T05:40:14.398Z,17.00
2017-08-25T05:42:42.255Z,17.20
2017-08-25T05:45:09.815Z,17.40
2017-08-25T05:47:37.587Z,17.50
2017-08-25T05:50:05.200Z,17.60
2017-08-25T05:52:32.796Z,17.70
2017-08-25T05:55:00.396Z,17.90
2017-08-25T05:57:27.974Z,18.40
2017-08-25T05:59:55.968Z,19.00
2017-08-25T06:02:23.569Z,19.70
2017-08-25T06:04:51.170Z,20.40
2017-08-25T06:07:18.914Z,21.40
2017-08-25T06:09:46.482Z,21.40
2017-08-25T06:12:14.103Z,21.30
2017-08-25T06:14:41.691Z,21.00
2017-08-25T06:17:09.648Z,20.70
2017-08-25T06:19:37.238Z,20.60
2017-08-25T06:22:04.830Z,20.50
2017-08-25T06:24:32.428Z,20.70
2017-08-25T06:27:00.007Z,20.70
2017-08-25T06:29:27.619Z,21.20
2017-08-25T06:31:55.188Z,21.40
2017-08-25T06:34:26.101Z,21.30
2017-08-25T06:36:53.684Z,20.90
2017-08-25T06:39:21.275Z,20.80
2017-08-25T06:41:48.860Z,20.80
2017-08-25T06:44:16.454Z,20.80
2017-08-25T06:46:44.059Z,20.90
2017-08-25T06:49:11.682Z,20.90
2017-08-25T06:51:40.358Z,21.50
2017-08-25T06:54:07.991Z,21.40
2017-08-25T06:56:35.579Z,22.20
2017-08-25T06:59:03.174Z,22.80
2017-08-25T07:01:30.746Z,23.30
2017-08-25T07:03:58.365Z,25.10
2017-08-25T07:06:25.985Z,27.10
2017-08-25T07:08:53.936Z,29.00
2017-08-25T07:11:21.531Z,30.40
2017-08-25T07:13:49.135Z,31.50
2017-08-25T07:16:16.753Z,31.90
2017-08-25T07:18:44.334Z,33.10
2017-08-25T07:21:11.914Z,33.90
2017-08-25T07:23:39.493Z,34.20
2017-08-25T07:26:07.443Z,34.60
2017-08-25T07:28:35.017Z,35.20
2017-08-25T07:31:02.840Z,35.30
2017-08-25T07:33:30.468Z,35.10
2017-08-25T07:35:58.812Z,36.00
2017-08-25T07:38:26.407Z,36.00
2017-08-25T07:40:54.755Z,37.10
2017-08-25T07:43:22.608Z,37.10
2017-08-25T07:45:50.198Z,36.90
2017-08-25T07:48:17.796Z,37.00
2017-08-25T07:50:45.377Z,36.90
2017-08-25T07:53:12.933Z,37.00
2017-08-25T07:55:40.542Z,37.20
2017-08-25T07:58:08.928Z,38.40
2017-08-25T08:00:37.747Z,38.40
2017-08-25T08:03:05.331Z,38.30
2017-08-25T08:05:32.907Z,37.80
2017-08-25T08:08:00.580Z,38.30
2017-08-25T08:10:28.149Z,37.70
2017-08-25T08:12:55.763Z,38.20
2017-08-25T08:15:23.692Z,38.80
2017-08-25T08:17:52.027Z,39.30
2017-08-25T08:20:19.658Z,39.00
2017-08-25T08:22:47.236Z,40.10
2017-08-25T08:25:14.883Z,40.10
2017-08-25T08:27:42.471Z,40.00
2017-08-25T08:30:10.079Z,40.50
2017-08-25T08:32:37.753Z,39.90
2017-08-25T08:35:05.609Z,41.40
2017-08-25T08:37:33.216Z,41.20
2017-08-25T08:40:00.803Z,41.40
2017-08-25T08:42:28.404Z,40.40
2017-08-25T08:44:55.982Z,40.90
2017-08-25T08:47:23.620Z,40.40
2017-08-25T08:49:51.205Z,40.10
2017-08-25T08:52:19.070Z,40.40
2017-08-25T08:54:46.647Z,40.00
2017-08-25T08:57:14.486Z,40.70
2017-08-25T08:59:42.131Z,41.00
2017-08-25T09:02:09.709Z,41.70
2017-08-25T09:04:37.324Z,39.50
2017-08-25T09:07:05.016Z,39.10
2017-08-25T09:09:32.609Z,40.40
2017-08-25T09:12:00.289Z,41.00
2017-08-25T09:14:27.886Z,40.30
2017-08-25T09:16:55.761Z,40.60
2017-08-25T09:19:23.335Z,39.90
2017-08-25T09:21:50.953Z,40.70
2017-08-25T09:24:18.552Z,39.40
2017-08-25T09:26:46.163Z,40.00
2017-08-25T09:29:14.048Z,39.90
2017-08-25T09:31:41.624Z,40.80
2017-08-25T09:34:09.240Z,40.90
2017-08-25T09:36:36.888Z,42.00
2017-08-25T09:39:04.423Z,41.00
2017-08-25T09:41:32.035Z,40.90
2017-08-25T09:43:59.985Z,41.50
2017-08-25T09:46:27.926Z,42.60
2017-08-25T09:48:55.499Z,41.90
2017-08-25T09:51:23.079Z,43.40
2017-08-25T09:53:50.695Z,44.70
2017-08-25T09:56:18.445Z,44.10
2017-08-25T09:58:46.346Z,44.00
2017-08-25T10:01:13.917Z,40.90
2017-08-25T10:03:41.477Z,41.00
2017-08-25T10:06:09.068Z,40.70
2017-08-25T10:08:36.661Z,42.00
2017-08-25T10:11:04.245Z,42.90
2017-08-25T10:13:31.931Z,42.40
2017-08-25T10:15:59.866Z,41.90
2017-08-25T10:18:27.468Z,42.60
2017-08-25T10:20:55.072Z,43.10
2017-08-25T10:23:22.689Z,43.60
2017-08-25T10:25:50.383Z,44.60
2017-08-25T10:28:18.014Z,44.20
2017-08-25T10:30:45.599Z,43.60
2017-08-25T10:33:25.298Z,44.40
2017-08-25T10:36:04.809Z,44.60
2017-08-25T10:41:43.841Z,44.70
2017-08-25T10:44:23.708Z,44.50
2017-08-25T10:46:51.269Z,44.40
2017-08-25T10:49:18.851Z,45.00
2017-08-25T10:51:46.418Z,46.20
2017-08-25T10:54:14.018Z,45.40
2017-08-25T10:56:41.624Z,44.60
2017-08-25T10:59:09.189Z,45.20
2017-08-25T11:01:37.037Z,44.00
2017-08-25T11:04:04.811Z,44.60
2017-08-25T11:06:32.406Z,44.10
2017-08-25T11:09:00.100Z,44.70
2017-08-25T11:11:27.688Z,44.90
2017-08-25T11:13:55.308Z,43.20
2017-08-25T11:16:23.849Z,43.50
2017-08-25T11:18:51.807Z,44.30
2017-08-25T11:21:19.472Z,44.60
2017-08-25T11:23:47.137Z,45.00
2017-08-25T11:26:14.732Z,44.70
2017-08-25T11:28:42.298Z,45.20
2017-08-25T11:31:10.511Z,45.20
2017-08-25T11:33:38.085Z,44.10
2017-08-25T11:36:06.043Z,41.60
2017-08-25T11:38:33.638Z,42.00
2017-08-25T11:41:01.229Z,42.30
2017-08-25T11:43:28.831Z,42.20
2017-08-25T11:45:56.444Z,42.80
2017-08-25T11:48:24.207Z,43.50
2017-08-25T11:50:51.781Z,43.30
2017-08-25T11:53:19.662Z,40.70
2017-08-25T11:55:47.272Z,38.10
2017-08-25T11:58:14.850Z,38.90
2017-08-25T12:00:42.473Z,40.00
2017-08-25T12:03:10.073Z,41.60
2017-08-25T12:05:37.667Z,39.90
2017-08-25T12:08:05.262Z,39.40
2017-08-25T12:10:33.177Z,39.50
2017-08-25T12:13:00.757Z,37.50
2017-08-25T12:15:28.328Z,38.00
2017-08-25T12:17:55.913Z,39.70
2017-08-25T12:20:23.566Z,41.10
2017-08-25T12:22:51.210Z,40.30
2017-08-25T12:25:18.761Z,39.10
2017-08-25T12:27:46.616Z,37.90
2017-08-25T12:30:14.261Z,36.30
2017-08-25T12:32:41.839Z,34.50
2017-08-25T12:35:09.437Z,34.20
2017-08-25T12:37:37.013Z,34.10
2017-08-25T12:40:04.689Z,34.10
2017-08-25T12:42:32.819Z,34.30
2017-08-25T12:45:00.896Z,34.40
2017-08-25T12:47:28.512Z,34.20
2017-08-25T12:49:56.150Z,34.60
2017-08-25T12:52:23.747Z,35.90
2017-08-25T12:54:51.303Z,36.50
2017-08-25T12:57:18.956Z,37.00
2017-08-25T12:59:46.543Z,37.40
2017-08-25T13:02:14.639Z,38.50
2017-08-25T13:04:44.494Z,39.20
2017-08-25T13:07:12.164Z,39.20
2017-08-25T13:09:39.772Z,38.70
2017-08-25T13:12:07.364Z,38.10
2017-08-25T13:14:34.963Z,37.50
2017-08-25T13:17:02.578Z,36.70
2017-08-25T13:19:30.514Z,35.70
2017-08-25T13:21:58.146Z,35.60
2017-08-25T13:24:25.714Z,35.50
2017-08-25T13:26:53.308Z,35.40
2017-08-25T13:29:20.896Z,34.70
2017-08-25T13:31:48.578Z,34.80
2017-08-25T13:34:16.159Z,35.10
2017-08-25T13:36:44.108Z,35.40
2017-08-25T13:39:11.964Z,35.90
2017-08-25T13:41:39.603Z,36.20
2017-08-25T13:44:07.188Z,36.50
2017-08-25T13:46:34.833Z,36.60
2017-08-25T13:49:02.443Z,36.30
2017-08-25T13:51:30.065Z,35.70
2017-08-25T13:53:57.662Z,35.10
2017-08-25T13:56:26.038Z,34.70
2017-08-25T13:58:53.621Z,34.70
2017-08-25T14:01:21.523Z,34.40
2017-08-25T14:03:49.110Z,34.80
2017-08-25T14:06:16.678Z,34.90
2017-08-25T14:08:44.277Z,34.60
2017-08-25T14:11:11.856Z,34.00
2017-08-25T14:13:39.815Z,34.10
2017-08-25T14:16:07.391Z,34.40
2017-08-25T14:18:34.970Z,34.40
2017-08-25T14:21:02.696Z,34.40
2017-08-25T14:23:30.266Z,34.60
2017-08-25T14:25:58.134Z,34.40
2017-08-25T14:28:25.717Z,34.20
2017-08-25T14:30:53.359Z,33.80
2017-08-25T14:33:20.974Z,33.30
2017-08-25T14:35:48.559Z,33.50
2017-08-25T14:38:16.564Z,32.90
2017-08-25T14:40:44.157Z,33.10
2017-08-25T14:43:11.742Z,33.40
2017-08-25T14:45:39.338Z,33.60
2017-08-25T14:48:06.940Z,33.40
2017-08-25T14:50:34.798Z,33.40
2017-08-25T14:53:03.157Z,33.10
2017-08-25T14:55:30.735Z,33.10
2017-08-25T14:57:58.359Z,33.00
2017-08-25T15:00:25.968Z,32.90
2017-08-25T15:02:53.652Z,32.90
2017-08-25T15:05:21.227Z,32.60
2017-08-25T15:07:49.107Z,32.20
2017-08-25T15:10:16.726Z,31.70
2017-08-25T15:12:44.285Z,31.70
2017-08-25T15:15:11.883Z,31.30
2017-08-25T15:17:39.479Z,31.20
2017-08-25T15:20:07.663Z,31.00
2017-08-25T15:22:35.267Z,30.80
2017-08-25T15:25:02.850Z,31.00
2017-08-25T15:27:30.552Z,31.10
2017-08-25T15:29:58.146Z,31.20
2017-08-25T15:32:26.031Z,31.10
2017-08-25T15:34:53.616Z,31.10
2017-08-25T15:37:21.210Z,30.90
2017-08-25T15:39:48.865Z,30.70
2017-08-25T15:42:16.411Z,30.70
2017-08-25T15:44:44.248Z,30.60
2017-08-25T15:47:12.053Z,30.50
2017-08-25T15:49:39.684Z,30.20
2017-08-25T15:52:07.268Z,30.10
2017-08-25T15:54:34.861Z,30.10
2017-08-25T15:57:02.771Z,30.30
2017-08-25T15:59:30.383Z,30.50
2017-08-25T16:01:57.940Z,30.40
2017-08-25T16:04:25.552Z,30.40
2017-08-25T16:06:53.161Z,30.50
2017-08-25T16:09:21.073Z,30.50
2017-08-25T16:11:48.662Z,30.40
2017-08-25T16:14:16.237Z,30.60
2017-08-25T16:16:43.813Z,30.50
2017-08-25T16:19:11.413Z,30.40
2017-08-25T16:21:39.281Z,30.20
2017-08-25T16:24:06.873Z,30.20
2017-08-25T16:26:34.470Z,30.00
2017-08-25T16:29:02.326Z,29.90
2017-08-25T16:31:29.913Z,29.90
2017-08-25T16:33:57.870Z,29.90
2017-08-25T16:36:25.474Z,29.70
2017-08-25T16:38:53.091Z,29.60
2017-08-25T16:41:20.678Z,29.70
2017-08-25T16:43:48.316Z,29.50
2017-08-25T16:46:16.325Z,29.50
2017-08-25T16:48:43.964Z,29.40
2017-08-25T16:51:11.534Z,29.30
2017-08-25T16:53:39.165Z,29.30
2017-08-25T16:56:06.795Z,29.10
2017-08-25T16:58:34.480Z,29.10
2017-08-25T17:01:02.059Z,28.90
2017-08-25T17:03:29.686Z,28.70
2017-08-25T17:05:57.286Z,28.60
2017-08-25T17:08:25.243Z,28.50
2017-08-25T17:10:52.844Z,28.30
2017-08-25T17:13:21.200Z,28.00
2017-08-25T17:15:48.796Z,28.00
2017-08-25T17:18:16.380Z,28.00
2017-08-25T17:20:44.274Z,27.90
2017-08-25T17:23:11.846Z,27.90
2017-08-25T17:25:39.402Z,27.70
2017-08-25T17:28:07.070Z,27.60
2017-08-25T17:30:34.673Z,27.60
2017-08-25T17:33:02.520Z,27.40
2017-08-25T17:35:30.143Z,27.30
2017-08-25T17:37:57.719Z,27.20
2017-08-25T17:40:25.331Z,27.10
2017-08-25T17:42:52.923Z,27.00
2017-08-25T17:45:20.683Z,27.00
2017-08-25T17:47:48.391Z,26.90
2017-08-25T17:50:16.357Z,26.80
2017-08-25T17:52:43.993Z,26.70
2017-08-25T17:55:11.608Z,26.60
2017-08-25T17:57:39.219Z,26.50
2017-08-25T18:00:06.911Z,26.40
2017-08-25T18:02:34.483Z,26.30
2017-08-25T18:05:02.064Z,26.20
2017-08-25T18:07:30.035Z,26.20
2017-08-25T18:09:57.619Z,26.10
2017-08-25T18:12:25.226Z,26.00
2017-08-25T18:14:52.831Z,25.90
2017-08-25T18:17:20.420Z,25.90
2017-08-25T18:19:48.032Z,25.90
2017-08-25T18:22:15.633Z,26.00
2017-08-25T18:24:43.250Z,25.90
2017-08-25T18:27:10.841Z,25.90
2017-08-25T18:29:38.771Z,25.90
2017-08-25T18:32:06.478Z,25.80
2017-08-25T18:34:34.035Z,25.70
2017-08-25T18:37:01.653Z,25.60
2017-08-25T18:39:29.246Z,25.40
2017-08-25T18:41:56.872Z,25.30
2017-08-25T18:44:24.512Z,25.10
2017-08-25T18:46:52.410Z,25.20
2017-08-25T18:49:20.001Z,25.10
2017-08-25T18:51:47.588Z,25.00
2017-08-25T18:54:15.190Z,25.00
2017-08-25T18:56:42.795Z,25.10
2017-08-25T18:59:10.442Z,25.30
2017-08-25T19:01:38.028Z,25.20
2017-08-25T19:04:05.943Z,25.10
2017-08-25T19:06:33.531Z,25.00
2017-08-25T19:09:01.122Z,24.90
2017-08-25T19:11:28.785Z,24.70
2017-08-25T19:13:56.352Z,24.70
2017-08-25T19:16:24.324Z,24.60
2017-08-25T19:18:51.908Z,24.50
2017-08-25T19:21:19.512Z,24.40
2017-08-25T19:23:47.138Z,24.40
2017-08-25T19:26:14.806Z,24.30
2017-08-25T19:28:42.770Z,24.10
2017-08-25T19:31:10.375Z,24.20
2017-08-25T19:33:37.932Z,24.20
2017-08-25T19:36:05.503Z,24.10
2017-08-25T19:38:33.110Z,24.10
2017-08-25T19:41:00.735Z,24.10
2017-08-25T19:43:28.372Z,24.00
2017-08-25T19:45:56.268Z,23.80
2017-08-25T19:48:23.868Z,23.80
2017-08-25T19:50:51.453Z,23.70
2017-08-25T19:53:19.089Z,23.70
2017-08-25T19:55:46.662Z,23.60
2017-08-25T19:58:14.585Z,23.50
2017-08-25T20:00:42.226Z,23.40
2017-08-25T20:03:10.138Z,23.30
2017-08-25T20:05:37.748Z,23.10
2017-08-25T20:08:05.441Z,23.00
2017-08-25T20:10:33.055Z,22.90
2017-08-25T20:13:00.673Z,22.90
2017-08-25T20:15:28.278Z,22.90
2017-08-25T20:17:56.121Z,22.80
2017-08-25T20:20:24.009Z,22.80
2017-08-25T20:22:51.583Z,22.70
2017-08-25T20:25:19.197Z,22.70
2017-08-25T20:27:46.966Z,22.70
2017-08-25T20:30:14.569Z,22.60
2017-08-25T20:32:42.194Z,22.60
2017-08-25T20:35:09.778Z,22.40
2017-08-25T20:37:37.701Z,22.30
2017-08-25T20:40:05.328Z,22.20
2017-08-25T20:42:32.894Z,22.20
2017-08-25T20:45:00.510Z,22.20
2017-08-25T20:47:28.494Z,22.10
2017-08-25T20:49:56.221Z,22.00
2017-08-25T20:52:23.820Z,21.80
2017-08-25T20:54:51.711Z,21.70
2017-08-25T20:57:19.315Z,22.00
2017-08-25T20:59:46.938Z,21.90
2017-08-25T21:04:43.517Z,21.70
2017-08-25T21:07:11.131Z,21.60
2017-08-25T21:09:38.844Z,21.50
2017-08-25T21:12:06.989Z,21.40
2017-08-25T21:14:34.620Z,21.40
2017-08-25T21:17:02.224Z,21.30
2017-08-25T21:19:29.951Z,21.20
2017-08-25T21:21:57.544Z,21.10
2017-08-25T21:24:25.161Z,21.10
2017-08-25T21:26:52.782Z,21.00
2017-08-25T21:29:20.976Z,21.00
2017-08-25T21:31:48.747Z,20.90
2017-08-25T21:34:16.797Z,20.90
2017-08-25T21:36:44.388Z,20.90
2017-08-25T21:39:12.000Z,20.90
2017-08-25T21:41:39.619Z,20.90
2017-08-25T21:44:07.197Z,20.90
2017-08-25T21:46:35.182Z,20.80
2017-08-25T21:49:02.783Z,20.70
2017-08-25T21:51:31.136Z,20.60
2017-08-25T21:53:58.745Z,20.60
2017-08-25T21:56:26.328Z,20.50
2017-08-25T21:58:53.922Z,20.50
2017-08-25T22:01:21.508Z,20.40
2017-08-25T22:03:49.263Z,20.30
2017-08-25T22:06:17.180Z,20.20
2017-08-25T22:08:44.796Z,20.20
2017-08-25T22:11:12.379Z,20.10
2017-08-25T22:13:39.988Z,20.00
2017-08-25T22:16:07.554Z,20.00
2017-08-25T22:18:35.492Z,19.90
2017-08-25T22:21:03.075Z,19.90
2017-08-25T22:23:30.755Z,19.80
2017-08-25T22:25:58.395Z,19.80
2017-08-25T22:28:25.989Z,19.80
2017-08-25T22:30:54.004Z,19.70
2017-08-25T22:33:21.632Z,19.70
2017-08-25T22:35:49.540Z,19.70
2017-08-25T22:38:17.135Z,19.60
2017-08-25T22:40:44.716Z,19.60
2017-08-25T22:43:12.348Z,19.60
2017-08-25T22:45:39.936Z,19.60
2017-08-25T22:48:07.535Z,19.50
2017-08-25T22:50:35.150Z,19.40
2017-08-25T22:53:02.771Z,19.40
2017-08-25T22:55:30.349Z,19.40
2017-08-25T22:57:59.000Z,19.30
2017-08-25T23:00:26.562Z,19.30
2017-08-25T23:02:54.219Z,19.20
2017-08-25T23:05:22.195Z,19.20
2017-08-25T23:07:49.824Z,19.10
2017-08-25T23:10:17.452Z,19.10
2017-08-25T23:12:45.816Z,19.10
2017-08-25T23:15:13.436Z,19.00
2017-08-25T23:17:41.309Z,19.00
2017-08-25T23:20:08.932Z,19.00
2017-08-25T23:22:36.505Z,19.00
2017-08-25T23:25:04.122Z,18.90
2017-08-25T23:27:32.506Z,18.80
2017-08-25T23:30:00.110Z,18.80
2017-08-25T23:32:27.698Z,18.80
2017-08-25T23:34:55.268Z,18.70
2017-08-25T23:37:22.892Z,18.60
2017-08-25T23:39:50.480Z,18.60
2017-08-25T23:42:18.413Z,18.70
2017-08-25T23:44:46.232Z,18.70
2017-08-25T23:47:13.808Z,18.70
2017-08-25T23:49:41.398Z,18.70
2017-08-25T23:52:08.995Z,18.70
2017-08-25T23:54:36.859Z,18.60
2017-08-25T23:57:04.436Z,18.60
2017-08-25T23:59:32.015Z,18.50
